createdAt,value
2022-12-28T05:00:37.237Z,91.33
2022-12-28T05:01:37.430Z,91.33
2022-12-28T05:02:37.202Z,91.13
2022-12-28T05:03:37.092Z,90.92
2022-12-28T05:04:37.092Z,91.23
2022-12-28T05:05:37.132Z,91.23
2022-12-28T05:06:37.108Z,91.44
2022-12-28T05:07:37.070Z,91.33
2022-12-28T05:08:37.043Z,91.33
2022-12-28T05:09:37.036Z,91.33
2022-12-28T05:10:37.054Z,90.81
2022-12-28T05:11:37.082Z,91.23
2022-12-28T05:12:37.009Z,91.06
2022-12-28T05:13:36.991Z,90.61
2022-12-28T05:14:37.436Z,90.72
2022-12-28T05:15:36.975Z,90.61
2022-12-28T05:16:37.013Z,90.72
2022-12-28T05:17:36.986Z,90.72
2022-12-28T05:18:36.939Z,90.61
2022-12-28T05:19:36.925Z,91.23
2022-12-28T05:20:36.922Z,90.61
2022-12-28T05:21:36.929Z,91.13
2022-12-28T05:22:40.891Z,90.81
2022-12-28T05:23:36.920Z,90.88
2022-12-28T05:24:36.893Z,90.98
2022-12-28T05:25:36.870Z,91.29
2022-12-28T05:26:36.859Z,91.08
2022-12-28T05:27:36.840Z,90.88
2022-12-28T05:28:36.844Z,91.19
2022-12-28T05:29:36.864Z,90.78
2022-12-28T05:30:36.813Z,91.39
2022-12-28T05:31:36.883Z,91.08
2022-12-28T05:32:36.888Z,90.41
2022-12-28T05:33:36.774Z,90.47
2022-12-28T05:34:36.781Z,90.36
2022-12-28T05:35:36.802Z,90.57
2022-12-28T05:36:36.756Z,90.06
2022-12-28T05:37:36.737Z,89.95
2022-12-28T05:38:36.773Z,90.26
2022-12-28T05:39:36.712Z,90.16
2022-12-28T05:40:36.709Z,90.26
2022-12-28T05:41:36.714Z,90.26
2022-12-28T05:42:36.688Z,90.16
2022-12-28T05:43:36.702Z,90.47
2022-12-28T05:44:36.676Z,90.47
2022-12-28T05:45:36.646Z,90.26
2022-12-28T05:46:36.719Z,90.06
2022-12-28T05:47:36.635Z,90.36
2022-12-28T05:48:36.633Z,90.57
2022-12-28T05:49:36.649Z,90.42
2022-12-28T05:50:36.595Z,90.57
2022-12-28T05:51:39.559Z,90.53
2022-12-28T05:52:38.593Z,90.22
2022-12-28T05:53:36.567Z,90.42
2022-12-28T05:54:36.574Z,90.67
2022-12-28T05:55:36.596Z,90.47
2022-12-28T05:56:36.532Z,90.47
2022-12-28T05:57:36.520Z,90.32
2022-12-28T05:58:36.507Z,90.47
2022-12-28T05:59:36.517Z,90.47
2022-12-28T06:00:36.510Z,90.26
2022-12-28T06:01:36.726Z,90.47
2022-12-28T06:02:36.550Z,90.26
2022-12-28T06:03:36.515Z,90.36
2022-12-28T06:04:36.464Z,90.36
2022-12-28T06:05:36.454Z,90.36
2022-12-28T06:06:36.477Z,90.26
2022-12-28T06:07:36.434Z,90.16
2022-12-28T06:08:36.397Z,90.06
2022-12-28T06:09:36.394Z,90.26
2022-12-28T06:10:36.383Z,90.26
2022-12-28T06:11:36.373Z,90.26
2022-12-28T06:12:36.359Z,90.26
2022-12-28T06:13:36.389Z,90.06
2022-12-28T06:14:36.332Z,90.16
2022-12-28T06:15:36.327Z,90.47
2022-12-28T06:16:36.378Z,90.36
2022-12-28T06:17:36.304Z,90.36
2022-12-28T06:18:36.303Z,90.42
2022-12-28T06:19:36.351Z,90.22
2022-12-28T06:20:36.288Z,90.16
2022-12-28T06:21:36.264Z,90.16
2022-12-28T06:22:36.247Z,90.47
2022-12-28T06:23:36.238Z,90.47
2022-12-28T06:24:36.248Z,90.57
2022-12-28T06:25:36.235Z,90.98
2022-12-28T06:26:36.200Z,90.47
2022-12-28T06:27:36.196Z,90.47
2022-12-28T06:28:36.184Z,90.47
2022-12-28T06:29:36.174Z,90.01
2022-12-28T06:30:36.184Z,90.01
2022-12-28T06:31:36.308Z,90.32
2022-12-28T06:32:36.149Z,89.70
2022-12-28T06:33:36.133Z,89.25
2022-12-28T06:34:36.119Z,89.46
2022-12-28T06:35:36.116Z,89.19
2022-12-28T06:36:36.115Z,89.09
2022-12-28T06:37:36.102Z,89.19
2022-12-28T06:38:36.096Z,89.40
2022-12-28T06:39:36.081Z,89.60
2022-12-28T06:41:11.293Z,89.50
2022-12-28T06:41:37.056Z,88.89
2022-12-28T06:42:36.035Z,89.19
2022-12-28T06:43:36.041Z,89.29
2022-12-28T06:44:42.408Z,89.50
2022-12-28T06:45:37.141Z,88.64
2022-12-28T06:46:36.025Z,88.84
2022-12-28T06:47:35.999Z,88.43
2022-12-28T06:48:35.979Z,88.78
2022-12-28T06:49:36.008Z,88.43
2022-12-28T06:50:40.054Z,88.43
2022-12-28T06:51:35.953Z,88.23
2022-12-28T06:52:35.966Z,88.64
2022-12-28T06:53:35.909Z,88.33
2022-12-28T06:54:35.925Z,88.12
2022-12-28T06:55:35.925Z,88.64
2022-12-28T06:56:35.902Z,88.64
2022-12-28T06:57:35.881Z,88.74
2022-12-28T06:58:35.857Z,88.23
2022-12-28T06:59:35.859Z,88.64
2022-12-28T07:00:35.855Z,88.53
2022-12-28T07:01:36.147Z,87.71
2022-12-28T07:02:36.008Z,87.92
2022-12-28T07:03:35.810Z,88.43
2022-12-28T07:04:35.800Z,88.23
2022-12-28T07:05:35.782Z,88.23
2022-12-28T07:06:35.801Z,87.82
2022-12-28T07:07:35.781Z,88.43
2022-12-28T07:08:35.821Z,88.23
2022-12-28T07:09:35.740Z,88.33
2022-12-28T07:10:35.740Z,88.12
2022-12-28T07:11:35.715Z,87.26
2022-12-28T07:12:35.730Z,87.88
2022-12-28T07:13:35.730Z,87.57
2022-12-28T07:14:35.782Z,87.57
2022-12-28T07:15:35.672Z,87.88
2022-12-28T07:17:05.961Z,87.46
2022-12-28T07:18:05.950Z,87.82
2022-12-28T07:19:05.984Z,87.37
2022-12-28T07:20:05.931Z,87.88
2022-12-28T07:21:05.914Z,87.98
2022-12-28T07:22:05.975Z,87.71
2022-12-28T07:23:05.892Z,87.67
2022-12-28T07:24:05.899Z,88.08
2022-12-28T07:25:05.855Z,87.67
2022-12-28T07:26:05.873Z,87.88
2022-12-28T07:27:05.871Z,87.57
2022-12-28T07:28:05.825Z,87.77
2022-12-28T07:29:05.844Z,87.88
2022-12-28T07:30:05.821Z,87.57
2022-12-28T07:31:05.898Z,87.98
2022-12-28T07:32:05.805Z,87.37
2022-12-28T07:33:05.784Z,87.46
2022-12-28T07:34:05.804Z,87.77
2022-12-28T07:35:05.751Z,87.37
2022-12-28T07:36:05.741Z,87.26
2022-12-28T07:37:05.799Z,87.26
2022-12-28T07:38:05.716Z,87.37
2022-12-28T07:39:05.708Z,87.37
2022-12-28T07:40:05.731Z,87.37
2022-12-28T07:41:05.686Z,87.57
2022-12-28T07:42:05.697Z,87.26
2022-12-28T07:43:05.657Z,87.46
2022-12-28T07:44:05.684Z,87.16
2022-12-28T07:45:05.682Z,87.26
2022-12-28T07:46:05.713Z,87.57
2022-12-28T07:47:05.620Z,87.37
2022-12-28T07:48:05.653Z,87.26
2022-12-28T07:49:05.595Z,87.16
2022-12-28T07:50:05.598Z,87.46
2022-12-28T07:51:05.614Z,87.12
2022-12-28T07:52:05.586Z,87.12
2022-12-28T07:53:05.574Z,87.57
2022-12-28T07:54:05.573Z,87.67
2022-12-28T07:55:05.537Z,87.57
2022-12-28T07:56:05.545Z,87.57
2022-12-28T07:57:05.581Z,87.73
2022-12-28T07:58:05.544Z,87.53
2022-12-28T07:59:05.704Z,87.53
2022-12-28T08:00:05.486Z,87.32
2022-12-28T08:01:05.586Z,87.63
2022-12-28T08:02:05.632Z,87.46
2022-12-28T08:03:05.627Z,87.32
2022-12-28T08:04:05.515Z,87.53
2022-12-28T08:05:05.444Z,87.32
2022-12-28T08:06:05.412Z,87.12
2022-12-28T08:07:05.430Z,87.12
2022-12-28T08:08:05.395Z,87.22
2022-12-28T08:09:05.431Z,87.57
2022-12-28T08:10:05.389Z,86.81
2022-12-28T08:11:05.372Z,87.32
2022-12-28T08:12:05.418Z,87.22
2022-12-28T08:13:05.346Z,87.43
2022-12-28T08:14:05.335Z,87.53
2022-12-28T08:15:05.362Z,87.43
2022-12-28T08:16:05.410Z,87.53
2022-12-28T08:17:05.325Z,87.22
2022-12-28T08:18:05.285Z,87.32
2022-12-28T08:19:05.297Z,87.22
2022-12-28T08:20:05.265Z,87.22
2022-12-28T08:21:05.312Z,87.53
2022-12-28T08:22:05.245Z,87.22
2022-12-28T08:23:05.246Z,87.22
2022-12-28T08:24:05.220Z,87.43
2022-12-28T08:25:05.237Z,87.43
2022-12-28T08:26:05.208Z,86.60
2022-12-28T08:27:05.192Z,86.40
2022-12-28T08:28:05.210Z,87.18
2022-12-28T08:29:05.208Z,86.46
2022-12-28T08:30:05.264Z,86.50
2022-12-28T08:31:05.204Z,86.36
2022-12-28T08:32:05.151Z,86.71
2022-12-28T08:33:05.142Z,86.46
2022-12-28T08:34:05.147Z,86.57
2022-12-28T08:35:05.147Z,86.60
2022-12-28T08:36:05.102Z,86.60
2022-12-28T08:37:05.105Z,86.50
2022-12-28T08:38:05.147Z,86.50
2022-12-28T08:39:05.085Z,86.57
2022-12-28T08:40:05.069Z,86.30
2022-12-28T08:41:05.058Z,86.15
2022-12-28T08:42:05.071Z,86.05
2022-12-28T08:43:05.029Z,86.15
2022-12-28T08:44:05.031Z,86.25
2022-12-28T08:45:05.023Z,86.15
2022-12-28T08:46:05.099Z,85.95
2022-12-28T08:47:05.070Z,86.05
2022-12-28T08:48:04.992Z,86.05
2022-12-28T08:49:04.973Z,85.74
2022-12-28T08:50:04.993Z,86.05
2022-12-28T08:51:05.669Z,85.74
2022-12-28T08:52:05.770Z,85.64
2022-12-28T08:53:04.921Z,85.85
2022-12-28T08:54:04.942Z,85.64
2022-12-28T08:55:05.683Z,85.64
2022-12-28T08:56:06.845Z,85.85
2022-12-28T08:57:05.678Z,85.74
2022-12-28T08:58:05.673Z,86.05
2022-12-28T08:59:04.868Z,86.01
2022-12-28T09:00:04.861Z,85.71
2022-12-28T09:01:04.889Z,86.32
2022-12-28T09:02:05.002Z,86.01
2022-12-28T09:03:04.963Z,85.64
2022-12-28T09:04:04.928Z,85.74
2022-12-28T09:05:04.792Z,85.91
2022-12-28T09:06:04.784Z,86.11
2022-12-28T09:07:04.759Z,86.11
2022-12-28T09:08:04.764Z,85.74
2022-12-28T09:09:06.506Z,85.64
2022-12-28T09:10:04.801Z,85.91
2022-12-28T09:11:04.719Z,85.91
2022-12-28T09:12:04.736Z,86.01
2022-12-28T09:13:04.704Z,86.22
2022-12-28T09:14:04.701Z,86.22
2022-12-28T09:15:04.676Z,86.22
2022-12-28T09:16:04.711Z,86.11
2022-12-28T09:17:04.678Z,86.11
2022-12-28T09:18:04.659Z,86.01
2022-12-28T09:19:04.642Z,86.11
2022-12-28T09:20:04.625Z,86.01
2022-12-28T09:21:04.627Z,86.22
2022-12-28T09:22:04.771Z,86.01
2022-12-28T09:23:04.581Z,85.91
2022-12-28T09:24:04.577Z,86.22
2022-12-28T09:25:04.577Z,85.91
2022-12-28T09:26:04.561Z,85.39
2022-12-28T09:27:04.554Z,86.22
2022-12-28T09:28:04.539Z,85.66
2022-12-28T09:29:04.528Z,86.07
2022-12-28T09:30:04.542Z,85.87
2022-12-28T09:31:04.572Z,85.91
2022-12-28T09:32:04.531Z,85.87
2022-12-28T09:33:04.554Z,85.87
2022-12-28T09:35:05.544Z,86.01
2022-12-28T09:36:04.450Z,86.01
2022-12-28T09:37:04.442Z,85.71
2022-12-28T09:38:04.444Z,86.01
2022-12-28T09:39:04.492Z,85.80
2022-12-28T09:40:04.453Z,86.01
2022-12-28T09:41:04.385Z,85.91
2022-12-28T09:42:04.387Z,85.77
2022-12-28T09:43:04.378Z,85.80
2022-12-28T09:44:04.394Z,85.77
2022-12-28T09:45:04.364Z,85.66
2022-12-28T09:46:04.384Z,86.07
2022-12-28T09:47:04.360Z,85.87
2022-12-28T09:48:04.336Z,85.25
2022-12-28T09:49:04.314Z,85.56
2022-12-28T09:50:04.324Z,85.87
2022-12-28T09:51:04.320Z,85.05
2022-12-28T09:52:04.322Z,85.77
2022-12-28T09:53:04.276Z,85.87
2022-12-28T09:54:04.256Z,85.66
2022-12-28T09:55:04.338Z,85.66
2022-12-28T09:56:04.252Z,85.87
2022-12-28T09:57:04.225Z,85.77
2022-12-28T09:58:04.241Z,85.56
2022-12-28T09:59:04.203Z,85.97
2022-12-28T10:00:04.179Z,85.87
2022-12-28T10:01:04.288Z,85.77
2022-12-28T10:02:04.271Z,85.56
2022-12-28T10:03:04.257Z,85.97
2022-12-28T10:04:04.174Z,85.42
2022-12-28T10:05:04.136Z,85.63
2022-12-28T10:06:04.173Z,85.01
2022-12-28T10:07:04.531Z,85.11
2022-12-28T10:08:04.364Z,85.11
2022-12-28T10:09:05.171Z,85.01
2022-12-28T10:11:15.298Z,85.11
2022-12-28T10:12:15.324Z,85.01
2022-12-28T10:13:37.415Z,85.83
2022-12-28T10:14:17.147Z,85.22
2022-12-28T10:15:15.376Z,85.15
2022-12-28T10:16:15.320Z,85.22
2022-12-28T10:17:15.532Z,85.11
2022-12-28T10:18:15.218Z,85.01
2022-12-28T10:19:15.229Z,84.80
2022-12-28T10:20:15.243Z,85.31
2022-12-28T10:21:15.203Z,85.01
2022-12-28T10:22:15.157Z,85.01
2022-12-28T10:23:15.211Z,84.91
2022-12-28T10:24:32.146Z,85.11
2022-12-28T10:25:16.148Z,85.01
2022-12-28T10:26:15.131Z,85.11
2022-12-28T10:27:15.124Z,84.80
2022-12-28T10:28:15.186Z,85.11
2022-12-28T10:29:15.108Z,85.01
2022-12-28T10:30:15.084Z,84.70
2022-12-28T10:31:15.158Z,84.91
2022-12-28T10:32:15.082Z,84.70
2022-12-28T10:33:15.052Z,85.11
2022-12-28T10:34:15.067Z,85.11
2022-12-28T10:35:15.055Z,84.80
2022-12-28T10:36:15.019Z,85.42
2022-12-28T10:37:15.556Z,84.80
2022-12-28T10:38:15.010Z,84.19
2022-12-28T10:39:14.986Z,84.50
2022-12-28T10:40:15.022Z,85.31
2022-12-28T10:41:14.960Z,84.80
2022-12-28T10:42:14.946Z,84.91
2022-12-28T10:43:15.064Z,84.25
2022-12-28T10:44:38.996Z,84.15
2022-12-28T10:45:15.920Z,83.95
2022-12-28T10:46:15.002Z,83.98
2022-12-28T10:47:14.897Z,83.37
2022-12-28T10:48:14.884Z,83.74
2022-12-28T10:49:15.765Z,83.74
2022-12-28T10:51:15.901Z,83.33
2022-12-28T10:52:14.837Z,84.05
2022-12-28T10:53:14.839Z,83.84
2022-12-28T10:54:14.813Z,84.09
2022-12-28T10:55:15.816Z,83.84
2022-12-28T10:56:14.825Z,83.95
2022-12-28T10:57:14.830Z,84.15
2022-12-28T10:58:33.427Z,83.13
2022-12-28T10:59:15.780Z,83.84
2022-12-28T11:00:14.758Z,83.33
2022-12-28T11:01:15.033Z,84.05
2022-12-28T11:02:15.027Z,84.25
2022-12-28T11:03:14.862Z,83.95
2022-12-28T11:04:14.707Z,84.25
2022-12-28T11:05:14.704Z,83.84
2022-12-28T11:06:14.717Z,84.25
2022-12-28T11:07:14.710Z,84.25
2022-12-28T11:08:14.691Z,84.25
2022-12-28T11:09:14.762Z,84.15
2022-12-28T11:10:14.652Z,84.36
2022-12-28T11:11:14.637Z,84.15
2022-12-28T11:12:14.620Z,83.23
2022-12-28T11:13:19.928Z,83.95
2022-12-28T11:14:15.616Z,83.95
2022-12-28T11:15:14.601Z,83.44
2022-12-28T11:16:14.581Z,84.25
2022-12-28T11:17:14.573Z,83.54
2022-12-28T11:18:14.555Z,83.54
2022-12-28T11:19:14.562Z,83.33
2022-12-28T11:20:14.543Z,84.05
2022-12-28T11:21:14.547Z,83.95
2022-12-28T11:22:14.512Z,83.44
2022-12-28T11:23:14.516Z,83.44
2022-12-28T11:24:14.496Z,84.36
2022-12-28T11:25:14.504Z,82.92
2022-12-28T11:26:14.471Z,83.23
2022-12-28T11:27:14.484Z,83.23
2022-12-28T11:28:14.441Z,83.03
2022-12-28T11:29:14.431Z,82.96
2022-12-28T11:30:17.405Z,82.55
2022-12-28T11:31:14.485Z,82.71
2022-12-28T11:32:14.413Z,82.86
2022-12-28T11:33:14.429Z,83.47
2022-12-28T11:34:14.379Z,83.47
2022-12-28T11:35:14.380Z,83.03
2022-12-28T11:36:14.367Z,83.37
2022-12-28T11:37:14.346Z,83.37
2022-12-28T11:38:14.363Z,82.96
2022-12-28T11:39:14.352Z,83.27
2022-12-28T11:40:14.310Z,82.55
2022-12-28T11:41:14.292Z,83.58
2022-12-28T11:42:39.123Z,83.37
2022-12-28T11:43:15.290Z,82.55
2022-12-28T11:44:14.279Z,83.06
2022-12-28T11:45:14.283Z,82.41
2022-12-28T11:46:14.339Z,83.47
2022-12-28T11:47:14.248Z,83.06
2022-12-28T11:48:14.224Z,81.94
2022-12-28T11:49:14.210Z,83.37
2022-12-28T11:50:14.231Z,82.55
2022-12-28T11:51:14.272Z,82.71
2022-12-28T11:52:14.177Z,82.24
2022-12-28T11:53:14.238Z,82.86
2022-12-28T11:54:14.168Z,82.45
2022-12-28T11:55:14.161Z,81.94
2022-12-28T11:56:14.143Z,82.35
2022-12-28T11:57:14.187Z,82.96
2022-12-28T11:58:14.121Z,82.65
2022-12-28T11:59:14.106Z,82.65
2022-12-28T12:00:19.955Z,82.04
2022-12-28T12:01:15.136Z,82.62
2022-12-28T12:02:14.104Z,82.62
2022-12-28T12:03:14.216Z,82.51
2022-12-28T12:04:14.055Z,82.14
2022-12-28T12:05:14.040Z,82.82
2022-12-28T12:06:14.032Z,82.71
2022-12-28T12:07:14.028Z,82.21
2022-12-28T12:08:14.052Z,82.76
2022-12-28T12:09:14.028Z,82.10
2022-12-28T12:10:14.067Z,82.31
2022-12-28T12:11:14.015Z,82.10
2022-12-28T12:12:17.685Z,82.00
2022-12-28T12:13:13.945Z,82.31
2022-12-28T12:14:13.939Z,82.21
2022-12-28T12:15:13.965Z,81.79
2022-12-28T12:16:13.970Z,82.21
2022-12-28T12:17:13.938Z,82.31
2022-12-28T12:18:13.901Z,82.41
2022-12-28T12:19:13.883Z,82.00
2022-12-28T12:20:13.929Z,81.49
2022-12-28T12:21:16.231Z,81.70
2022-12-28T12:22:13.860Z,81.70
2022-12-28T12:23:13.859Z,81.08
2022-12-28T12:24:13.836Z,81.29
2022-12-28T12:25:13.827Z,81.08
2022-12-28T12:26:13.811Z,81.49
2022-12-28T12:27:13.972Z,81.18
2022-12-28T12:28:13.792Z,81.59
2022-12-28T12:29:13.768Z,81.59
2022-12-28T12:30:13.794Z,82.00
2022-12-28T12:31:13.783Z,82.62
2022-12-28T12:32:13.773Z,82.71
2022-12-28T12:33:13.783Z,82.41
2022-12-28T12:34:19.290Z,81.79
2022-12-28T12:35:14.707Z,81.70
2022-12-28T12:36:13.707Z,81.29
2022-12-28T12:37:13.728Z,81.22
2022-12-28T12:38:13.688Z,81.18
2022-12-28T12:39:13.699Z,81.49
2022-12-28T12:40:13.670Z,81.59
2022-12-28T12:41:13.649Z,81.18
2022-12-28T12:42:13.633Z,81.29
2022-12-28T12:43:13.663Z,81.70
2022-12-28T12:44:13.639Z,80.98
2022-12-28T12:45:13.647Z,81.49
2022-12-28T12:46:13.672Z,81.08
2022-12-28T12:47:13.587Z,81.18
2022-12-28T12:48:13.566Z,80.98
2022-12-28T12:49:13.555Z,80.98
2022-12-28T12:50:13.561Z,80.77
2022-12-28T12:51:13.570Z,80.88
2022-12-28T12:52:13.517Z,80.57
2022-12-28T12:53:13.515Z,80.36
2022-12-28T12:54:13.504Z,80.77
2022-12-28T12:55:13.494Z,80.88
2022-12-28T12:56:13.522Z,81.49
2022-12-28T12:57:13.521Z,81.59
2022-12-28T12:58:13.489Z,81.49
2022-12-28T12:59:13.462Z,81.59
2022-12-28T13:00:13.474Z,81.29
2022-12-28T13:01:13.539Z,81.43
2022-12-28T13:02:13.630Z,81.29
2022-12-28T13:03:13.490Z,81.18
2022-12-28T13:04:13.410Z,81.29
2022-12-28T13:05:13.378Z,81.18
2022-12-28T13:06:13.389Z,81.29
2022-12-28T13:07:13.373Z,80.91
2022-12-28T13:08:13.352Z,81.73
2022-12-28T13:09:13.383Z,81.38
2022-12-28T13:10:13.334Z,81.63
2022-12-28T13:11:13.328Z,81.63
2022-12-28T13:12:13.311Z,81.63
2022-12-28T13:13:13.295Z,81.73
2022-12-28T13:14:13.306Z,81.84
2022-12-28T13:15:13.310Z,81.43
2022-12-28T13:16:13.357Z,82.04
2022-12-28T13:17:13.252Z,81.32
2022-12-28T13:18:43.643Z,81.52
2022-12-28T13:19:14.225Z,81.32
2022-12-28T13:20:13.226Z,81.84
2022-12-28T13:21:13.247Z,82.35
2022-12-28T13:22:13.217Z,81.73
2022-12-28T13:23:13.180Z,82.14
2022-12-28T13:24:13.183Z,82.45
2022-12-28T13:25:13.168Z,82.24
2022-12-28T13:26:13.171Z,82.35
2022-12-28T13:27:13.167Z,82.14
2022-12-28T13:28:13.127Z,81.84
2022-12-28T13:29:13.118Z,81.84
2022-12-28T13:30:13.117Z,82.24
2022-12-28T13:31:13.177Z,82.55
2022-12-28T13:32:13.094Z,82.65
2022-12-28T13:33:13.109Z,82.76
2022-12-28T13:34:13.086Z,82.76
2022-12-28T13:35:13.054Z,82.14
2022-12-28T13:36:13.050Z,82.04
2022-12-28T13:37:13.044Z,82.45
2022-12-28T13:38:13.034Z,82.65
2022-12-28T13:39:13.038Z,82.55
2022-12-28T13:40:13.014Z,82.04
2022-12-28T13:41:12.996Z,81.52
2022-12-28T13:42:12.987Z,81.73
2022-12-28T13:43:12.972Z,81.94
2022-12-28T13:44:13.016Z,82.04
2022-12-28T13:45:12.976Z,82.04
2022-12-28T13:46:13.023Z,82.14
2022-12-28T13:47:12.954Z,81.73
2022-12-28T13:48:12.912Z,82.00
2022-12-28T13:49:12.911Z,81.84
2022-12-28T13:50:12.946Z,81.49
2022-12-28T13:51:12.878Z,81.43
2022-12-28T13:52:12.871Z,81.59
2022-12-28T13:53:12.869Z,80.88
2022-12-28T13:54:12.861Z,80.88
2022-12-28T13:55:12.839Z,81.12
2022-12-28T13:56:12.897Z,80.98
2022-12-28T13:57:45.322Z,81.49
2022-12-28T13:58:13.816Z,81.38
2022-12-28T13:59:12.794Z,81.08
2022-12-28T14:00:12.794Z,80.51
2022-12-28T14:01:12.889Z,80.36
2022-12-28T14:02:12.956Z,80.88
2022-12-28T14:03:12.769Z,80.36
2022-12-28T14:04:51.141Z,81.18
2022-12-28T14:05:13.785Z,81.38
2022-12-28T14:06:12.719Z,81.08
2022-12-28T14:07:12.713Z,80.98
2022-12-28T14:08:12.729Z,80.67
2022-12-28T14:09:12.677Z,80.88
2022-12-28T14:10:12.673Z,81.08
2022-12-28T14:11:12.668Z,81.29
2022-12-28T14:12:12.657Z,81.18
2022-12-28T14:13:12.652Z,81.38
2022-12-28T14:14:12.653Z,80.98
2022-12-28T14:15:12.611Z,81.08
2022-12-28T14:16:12.672Z,80.67
2022-12-28T14:17:12.593Z,80.77
2022-12-28T14:18:12.588Z,80.88
2022-12-28T14:19:12.595Z,81.12
2022-12-28T14:20:12.652Z,81.49
2022-12-28T14:21:12.558Z,80.98
2022-12-28T14:22:14.144Z,81.38
2022-12-28T14:23:12.524Z,80.77
2022-12-28T14:24:12.546Z,81.08
2022-12-28T14:25:12.505Z,81.32
2022-12-28T14:26:12.530Z,80.71
2022-12-28T14:27:12.503Z,81.63
2022-12-28T14:28:12.484Z,80.91
2022-12-28T14:29:12.457Z,81.32
2022-12-28T14:30:12.475Z,81.63
2022-12-28T14:31:12.509Z,81.52
2022-12-28T14:32:12.456Z,81.43
2022-12-28T14:33:15.334Z,81.22
2022-12-28T14:34:13.406Z,81.52
2022-12-28T14:35:12.413Z,81.32
2022-12-28T14:36:12.400Z,81.52
2022-12-28T14:37:12.368Z,81.32
2022-12-28T14:38:13.657Z,81.12
2022-12-28T14:39:12.371Z,81.12
2022-12-28T14:40:12.363Z,81.29
2022-12-28T14:41:12.343Z,81.52
2022-12-28T14:42:12.329Z,81.43
2022-12-28T14:43:12.458Z,81.43
2022-12-28T14:44:12.335Z,81.38
2022-12-28T14:45:12.320Z,81.43
2022-12-28T14:46:12.278Z,81.52
2022-12-28T14:47:12.374Z,80.91
2022-12-28T14:48:12.265Z,81.01
2022-12-28T14:49:12.274Z,81.32
2022-12-28T14:50:12.250Z,80.98
2022-12-28T14:51:12.242Z,81.29
2022-12-28T14:52:12.207Z,80.88
2022-12-28T14:53:12.201Z,81.38
2022-12-28T14:54:12.191Z,81.08
2022-12-28T14:55:12.229Z,81.49
2022-12-28T14:56:12.204Z,80.98
2022-12-28T14:57:12.154Z,80.98
2022-12-28T14:58:12.173Z,80.88
2022-12-28T14:59:12.160Z,81.29
2022-12-28T15:00:12.174Z,81.59
2022-12-28T15:01:12.148Z,81.38
2022-12-28T15:02:12.276Z,81.08
2022-12-28T15:03:12.142Z,80.77
2022-12-28T15:04:12.096Z,81.38
2022-12-28T15:05:12.066Z,80.98
2022-12-28T15:06:12.062Z,80.88
2022-12-28T15:07:12.196Z,80.88
2022-12-28T15:08:12.084Z,81.38
2022-12-28T15:09:12.025Z,81.29
2022-12-28T15:10:12.011Z,81.49
2022-12-28T15:11:12.028Z,80.98
2022-12-28T15:12:11.989Z,81.18
2022-12-28T15:13:11.978Z,80.36
2022-12-28T15:14:12.029Z,80.02
2022-12-28T15:15:11.952Z,79.85
2022-12-28T15:16:12.031Z,80.33
2022-12-28T15:17:11.978Z,79.96
2022-12-28T15:18:11.953Z,80.36
2022-12-28T15:19:11.912Z,80.63
2022-12-28T15:20:11.933Z,80.22
2022-12-28T15:21:11.892Z,80.16
2022-12-28T15:22:11.911Z,80.67
2022-12-28T15:23:11.895Z,80.43
2022-12-28T15:24:11.875Z,80.46
2022-12-28T15:25:11.855Z,80.26
2022-12-28T15:26:11.892Z,80.57
2022-12-28T15:27:11.823Z,80.43
2022-12-28T15:28:11.841Z,80.36
2022-12-28T15:29:13.536Z,80.88
2022-12-28T15:30:18.755Z,80.67
2022-12-28T15:31:12.934Z,80.16
2022-12-28T15:32:11.820Z,80.26
2022-12-28T15:33:11.759Z,80.67
2022-12-28T15:34:11.752Z,80.67
2022-12-28T15:35:11.743Z,79.96
2022-12-28T15:36:16.998Z,80.57
2022-12-28T15:37:12.719Z,80.36
2022-12-28T15:38:11.724Z,80.16
2022-12-28T15:39:11.711Z,80.26
2022-12-28T15:40:11.756Z,79.75
2022-12-28T15:41:11.681Z,79.44
2022-12-28T15:42:11.710Z,80.26
2022-12-28T15:43:11.661Z,79.96
2022-12-28T15:44:11.690Z,79.75
2022-12-28T15:45:11.639Z,80.26
2022-12-28T15:46:11.659Z,80.26
2022-12-28T15:47:11.674Z,79.64
2022-12-28T15:48:11.603Z,79.64
2022-12-28T15:49:11.603Z,79.75
2022-12-28T15:50:11.611Z,79.54
2022-12-28T15:51:11.571Z,79.85
2022-12-28T15:52:11.549Z,79.85
2022-12-28T15:53:11.572Z,78.72
2022-12-28T15:54:11.531Z,78.63
2022-12-28T15:55:11.551Z,79.24
2022-12-28T15:56:11.531Z,78.59
2022-12-28T15:57:11.555Z,78.63
2022-12-28T15:58:11.515Z,78.31
2022-12-28T15:59:11.476Z,79.24
2022-12-28T16:00:11.466Z,79.03
2022-12-28T16:01:12.098Z,79.03
2022-12-28T16:02:11.732Z,78.72
2022-12-28T16:03:11.523Z,79.03
2022-12-28T16:04:11.423Z,79.03
2022-12-28T16:05:11.423Z,78.93
2022-12-28T16:06:11.397Z,78.83
2022-12-28T16:07:11.392Z,79.13
2022-12-28T16:08:11.415Z,79.13
2022-12-28T16:09:11.415Z,78.63
2022-12-28T16:10:11.357Z,79.34
2022-12-28T16:11:11.363Z,79.24
2022-12-28T16:12:11.332Z,78.83
2022-12-28T16:13:11.323Z,78.93
2022-12-28T16:14:11.378Z,79.03
2022-12-28T16:15:11.310Z,79.13
2022-12-28T16:16:11.327Z,78.72
2022-12-28T16:17:11.288Z,79.03
2022-12-28T16:18:11.267Z,79.79
2022-12-28T16:19:11.263Z,79.64
2022-12-28T16:20:11.281Z,79.48
2022-12-28T16:21:11.255Z,79.03
2022-12-28T16:22:11.219Z,78.31
2022-12-28T16:23:11.217Z,79.13
2022-12-28T16:24:11.212Z,78.76
2022-12-28T16:25:11.210Z,78.76
2022-12-28T16:26:11.231Z,79.24
2022-12-28T16:27:11.204Z,78.42
2022-12-28T16:28:11.156Z,78.52
2022-12-28T16:29:11.142Z,78.52
2022-12-28T16:30:11.175Z,78.42
2022-12-28T16:31:11.232Z,78.21
2022-12-28T16:32:11.205Z,78.42
2022-12-28T16:33:11.107Z,79.03
2022-12-28T16:34:11.095Z,78.31
2022-12-28T16:35:11.095Z,78.52
2022-12-28T16:36:11.076Z,78.52
2022-12-28T16:37:11.058Z,78.63
2022-12-28T16:38:11.102Z,78.52
2022-12-28T16:39:11.069Z,78.72
2022-12-28T16:40:11.028Z,78.63
2022-12-28T16:41:11.020Z,79.03
2022-12-28T16:42:11.000Z,78.93
2022-12-28T16:43:11.053Z,78.83
2022-12-28T16:44:11.005Z,79.13
2022-12-28T16:45:10.970Z,79.27
2022-12-28T16:46:11.002Z,79.34
2022-12-28T16:47:10.951Z,79.48
2022-12-28T16:48:10.932Z,79.03
2022-12-28T16:49:10.995Z,78.63
2022-12-28T16:50:10.966Z,79.13
2022-12-28T16:51:10.932Z,78.97
2022-12-28T16:52:10.925Z,80.36
2022-12-28T16:53:10.946Z,79.75
2022-12-28T16:54:10.872Z,79.64
2022-12-28T16:55:10.914Z,80.26
2022-12-28T16:56:10.939Z,79.89
2022-12-28T16:57:10.845Z,79.68
2022-12-28T16:58:10.827Z,79.79
2022-12-28T16:59:10.835Z,80.09
2022-12-28T17:00:10.845Z,79.75
2022-12-28T17:01:10.961Z,79.54
2022-12-28T17:02:10.951Z,79.85
2022-12-28T17:03:10.808Z,79.96
2022-12-28T17:04:10.765Z,80.16
2022-12-28T17:05:10.771Z,80.26
2022-12-28T17:06:10.743Z,80.16
2022-12-28T17:07:10.729Z,79.75
2022-12-28T17:08:10.757Z,80.05
2022-12-28T17:09:10.719Z,80.16
2022-12-28T17:10:10.722Z,79.75
2022-12-28T17:11:10.689Z,80.16
2022-12-28T17:12:10.700Z,80.16
2022-12-28T17:13:10.692Z,80.26
2022-12-28T17:14:10.681Z,80.46
2022-12-28T17:15:10.659Z,80.36
2022-12-28T17:16:10.705Z,80.16
2022-12-28T17:17:10.620Z,80.57
2022-12-28T17:18:10.617Z,80.57
2022-12-28T17:19:10.640Z,80.36
2022-12-28T17:20:10.633Z,80.36
2022-12-28T17:21:10.610Z,80.67
2022-12-28T17:22:10.570Z,80.16
2022-12-28T17:23:10.572Z,80.88
2022-12-28T17:24:10.571Z,80.57
2022-12-28T17:25:10.545Z,80.26
2022-12-28T17:26:10.543Z,80.67
2022-12-28T17:27:15.562Z,80.88
2022-12-28T17:28:10.541Z,80.26
2022-12-28T17:29:10.494Z,80.43
2022-12-28T17:30:10.484Z,80.57
2022-12-28T17:31:10.503Z,80.36
2022-12-28T17:32:10.509Z,80.46
2022-12-28T17:33:10.441Z,79.91
2022-12-28T17:34:10.470Z,80.05
2022-12-28T17:35:10.435Z,80.43
2022-12-28T17:36:10.431Z,80.02
2022-12-28T17:37:10.424Z,80.22
2022-12-28T17:38:10.426Z,80.22
2022-12-28T17:39:10.435Z,80.05
2022-12-28T17:40:10.391Z,80.12
2022-12-28T17:41:10.407Z,80.43
2022-12-28T17:42:10.360Z,80.02
2022-12-28T17:43:10.329Z,80.36
2022-12-28T17:44:10.375Z,80.53
2022-12-28T17:45:12.021Z,80.36
2022-12-28T17:46:10.338Z,80.74
2022-12-28T17:47:10.953Z,80.26
2022-12-28T17:48:10.294Z,80.46
2022-12-28T17:49:10.300Z,80.53
2022-12-28T17:50:10.252Z,79.96
2022-12-28T17:51:11.555Z,80.33
2022-12-28T17:52:10.243Z,80.33
2022-12-28T17:53:10.252Z,80.46
2022-12-28T17:54:10.214Z,80.63
2022-12-28T17:55:10.281Z,81.08
2022-12-28T17:56:10.203Z,80.43